sensor_id;sensor_type;location;lat;lon;timestamp;pressure;altitude;pressure_sealevel;temperature;humidity
20145;BME280;10233;50.814;6.590;2022-09-30T00:00:57;99409.75;;;7.53;100.00
20145;BME280;10233;50.814;6.590;2022-09-30T00:01:58;99411.56;;;7.53;100.00
20145;BME280;10233;50.814;6.590;2022-09-30T00:02:58;99410.34;;;7.55;100.00
20145;BME280;10233;50.814;6.590;2022-09-30T00:03:59;99405.69;;;7.64;100.00
20145;BME280;10233;50.814;6.590;2022-09-30T00:05:00;99410.56;;;7.67;100.00
20145;BME280;10233;50.814;6.590;2022-09-30T00:06:02;99407.69;;;7.68;100.00
20145;BME280;10233;50.814;6.590;2022-09-30T00:07:03;99412.78;;;7.63;100.00
20145;BME280;10233;50.814;6.590;2022-09-30T00:08:04;99407.31;;;7.65;100.00
20145;BME280;10233;50.814;6.590;2022-09-30T00:09:04;99416.47;;;7.69;100.00
20145;BME280;10233;50.814;6.590;2022-09-30T00:10:05;99415.63;;;7.68;100.00
20145;BME280;10233;50.814;6.590;2022-09-30T00:11:18;99415.44;;;7.63;100.00
20145;BME280;10233;50.814;6.590;2022-09-30T00:12:18;99416.66;;;7.74;100.00
20145;BME280;10233;50.814;6.590;2022-09-30T00:13:19;99416.88;;;7.79;100.00
20145;BME280;10233;50.814;6.590;2022-09-30T00:14:21;99417.69;;;7.66;100.00
20145;BME280;10233;50.814;6.590;2022-09-30T00:15:22;99406.47;;;7.71;100.00
20145;BME280;10233;50.814;6.590;2022-09-30T00:16:26;99413.19;;;7.67;100.00
20145;BME280;10233;50.814;6.590;2022-09-30T00:17:27;99408.13;;;7.59;100.00
20145;BME280;10233;50.814;6.590;2022-09-30T00:18:28;99407.09;;;7.47;100.00
20145;BME280;10233;50.814;6.590;2022-09-30T00:19:28;99417.47;;;7.42;100.00
20145;BME280;10233;50.814;6.590;2022-09-30T00:20:29;99411.56;;;7.40;100.00
20145;BME280;10233;50.814;6.590;2022-09-30T00:21:29;99414.41;;;7.38;100.00
20145;BME280;10233;50.814;6.590;2022-09-30T00:22:30;99409.31;;;7.37;100.00
20145;BME280;10233;50.814;6.590;2022-09-30T00:23:30;99417.25;;;7.37;100.00
20145;BME280;10233;50.814;6.590;2022-09-30T00:24:30;99421.53;;;7.38;100.00
20145;BME280;10233;50.814;6.590;2022-09-30T00:25:31;99418.28;;;7.36;100.00
20145;BME280;10233;50.814;6.590;2022-09-30T00:26:32;99421.13;;;7.34;100.00
20145;BME280;10233;50.814;6.590;2022-09-30T00:27:33;99420.91;;;7.36;100.00
20145;BME280;10233;50.814;6.590;2022-09-30T00:28:34;99417.44;;;7.35;100.00
20145;BME280;10233;50.814;6.590;2022-09-30T00:29:34;99426.00;;;7.37;100.00
20145;BME280;10233;50.814;6.590;2022-09-30T00:30:35;99426.22;;;7.42;100.00
20145;BME280;10233;50.814;6.590;2022-09-30T00:31:36;99426.81;;;7.38;100.00
20145;BME280;10233;50.814;6.590;2022-09-30T00:32:36;99428.84;;;7.36;100.00
20145;BME280;10233;50.814;6.590;2022-09-30T00:33:37;99423.38;;;7.37;100.00
20145;BME280;10233;50.814;6.590;2022-09-30T00:34:37;99435.56;;;7.38;100.00
20145;BME280;10233;50.814;6.590;2022-09-30T00:35:38;99430.06;;;7.40;100.00
20145;BME280;10233;50.814;6.590;2022-09-30T00:36:52;99430.88;;;7.40;100.00
20145;BME280;10233;50.814;6.590;2022-09-30T00:37:54;99433.72;;;7.39;100.00
20145;BME280;10233;50.814;6.590;2022-09-30T00:38:55;99432.72;;;7.33;100.00
20145;BME280;10233;50.814;6.590;2022-09-30T00:39:55;99436.56;;;7.24;100.00
20145;BME280;10233;50.814;6.590;2022-09-30T00:40:56;99434.09;;;7.23;100.00
20145;BME280;10233;50.814;6.590;2022-09-30T00:42:01;99430.03;;;7.20;100.00
20145;BME280;10233;50.814;6.590;2022-09-30T00:43:02;99433.69;;;7.19;100.00
20145;BME280;10233;50.814;6.590;2022-09-30T00:45:58;99433.28;;;7.16;100.00
20145;BME280;10233;50.814;6.590;2022-09-30T00:46:59;99436.72;;;7.16;100.00
20145;BME280;10233;50.814;6.590;2022-09-30T00:48:08;99433.69;;;7.13;100.00
20145;BME280;10233;50.814;6.590;2022-09-30T00:49:15;99437.53;;;7.10;100.00
20145;BME280;10233;50.814;6.590;2022-09-30T00:50:34;99432.47;;;7.15;100.00
20145;BME280;10233;50.814;6.590;2022-09-30T00:51:38;99434.31;;;7.15;100.00
20145;BME280;10233;50.814;6.590;2022-09-30T00:52:43;99432.06;;;7.18;100.00
20145;BME280;10233;50.814;6.590;2022-09-30T00:53:51;99432.28;;;7.17;100.00
20145;BME280;10233;50.814;6.590;2022-09-30T00:54:54;99428.38;;;7.06;100.00
20145;BME280;10233;50.814;6.590;2022-09-30T00:56:33;99423.88;;;6.94;100.00
20145;BME280;10233;50.814;6.590;2022-09-30T00:57:36;99430.19;;;6.93;100.00
20145;BME280;10233;50.814;6.590;2022-09-30T00:58:50;99430.19;;;6.93;100.00
20145;BME280;10233;50.814;6.590;2022-09-30T00:59:52;99434.22;;;6.89;100.00
20145;BME280;10233;50.814;6.590;2022-09-30T01:00:53;99441.34;;;6.88;100.00
20145;BME280;10233;50.814;6.590;2022-09-30T01:01:54;99433.63;;;6.93;100.00
20145;BME280;10233;50.814;6.590;2022-09-30T01:02:55;99426.50;;;6.94;100.00
20145;BME280;10233;50.814;6.590;2022-09-30T01:03:59;99437.91;;;6.94;100.00
20145;BME280;10233;50.814;6.590;2022-09-30T01:05:01;99438.50;;;6.96;100.00
20145;BME280;10233;50.814;6.590;2022-09-30T01:06:02;99429.56;;;6.97;100.00
20145;BME280;10233;50.814;6.590;2022-09-30T01:07:05;99437.28;;;6.99;100.00
20145;BME280;10233;50.814;6.590;2022-09-30T01:08:07;99436.88;;;6.95;100.00
20145;BME280;10233;50.814;6.590;2022-09-30T01:09:09;99441.34;;;6.95;100.00
20145;BME280;10233;50.814;6.590;2022-09-30T01:10:09;99437.72;;;6.96;100.00
20145;BME280;10233;50.814;6.590;2022-09-30T01:11:10;99444.22;;;6.93;100.00
20145;BME280;10233;50.814;6.590;2022-09-30T01:12:16;99443.59;;;6.98;100.00
20145;BME280;10233;50.814;6.590;2022-09-30T01:13:19;99438.13;;;6.99;100.00
20145;BME280;10233;50.814;6.590;2022-09-30T01:14:24;99440.53;;;6.88;100.00
20145;BME280;10233;50.814;6.590;2022-09-30T01:16:27;99436.44;;;6.85;100.00
20145;BME280;10233;50.814;6.590;2022-09-30T01:23:08;99443.72;;;6.70;100.00
20145;BME280;10233;50.814;6.590;2022-09-30T01:30:04;99444.28;;;6.59;100.00
20145;BME280;10233;50.814;6.590;2022-09-30T01:31:07;99446.72;;;6.67;100.00
20145;BME280;10233;50.814;6.590;2022-09-30T01:34:01;99459.44;;;6.51;100.00
20145;BME280;10233;50.814;6.590;2022-09-30T01:35:33;99451.56;;;6.57;100.00
20145;BME280;10233;50.814;6.590;2022-09-30T01:36:57;99448.91;;;6.57;100.00
20145;BME280;10233;50.814;6.590;2022-09-30T01:38:11;99457.06;;;6.62;100.00
20145;BME280;10233;50.814;6.590;2022-09-30T01:41:05;99443.84;;;6.56;100.00
20145;BME280;10233;50.814;6.590;2022-09-30T01:42:24;99451.06;;;6.34;100.00
20145;BME280;10233;50.814;6.590;2022-09-30T01:44:56;99448.41;;;6.34;100.00
20145;BME280;10233;50.814;6.590;2022-09-30T01:48:25;99446.53;;;6.28;100.00
20145;BME280;10233;50.814;6.590;2022-09-30T01:49:52;99446.97;;;6.32;100.00
20145;BME280;10233;50.814;6.590;2022-09-30T01:51:00;99444.41;;;6.45;100.00
20145;BME280;10233;50.814;6.590;2022-09-30T01:52:10;99442.59;;;6.45;100.00
20145;BME280;10233;50.814;6.590;2022-09-30T01:56:23;99456.47;;;6.26;100.00
20145;BME280;10233;50.814;6.590;2022-09-30T01:57:38;99457.31;;;6.33;100.00
20145;BME280;10233;50.814;6.590;2022-09-30T02:00:10;99450.50;;;6.45;100.00
20145;BME280;10233;50.814;6.590;2022-09-30T02:01:26;99458.78;;;6.42;100.00
20145;BME280;10233;50.814;6.590;2022-09-30T02:02:30;99454.50;;;6.35;100.00
20145;BME280;10233;50.814;6.590;2022-09-30T02:03:41;99460.19;;;6.38;100.00
20145;BME280;10233;50.814;6.590;2022-09-30T02:04:49;99450.84;;;6.36;100.00
20145;BME280;10233;50.814;6.590;2022-09-30T02:05:59;99453.94;;;6.39;100.00
20145;BME280;10233;50.814;6.590;2022-09-30T02:07:05;99457.38;;;6.40;100.00
20145;BME280;10233;50.814;6.590;2022-09-30T02:08:16;99456.16;;;6.42;100.00
20145;BME280;10233;50.814;6.590;2022-09-30T02:09:28;99448.25;;;6.42;100.00
20145;BME280;10233;50.814;6.590;2022-09-30T02:10:37;99455.78;;;6.45;100.00
20145;BME280;10233;50.814;6.590;2022-09-30T02:11:40;99451.75;;;6.49;100.00
20145;BME280;10233;50.814;6.590;2022-09-30T02:12:49;99455.81;;;6.52;100.00
20145;BME280;10233;50.814;6.590;2022-09-30T02:15:21;99446.09;;;6.59;100.00
20145;BME280;10233;50.814;6.590;2022-09-30T02:16:31;99453.19;;;6.58;100.00
20145;BME280;10233;50.814;6.590;2022-09-30T02:17:44;99444.50;;;6.64;100.00
20145;BME280;10233;50.814;6.590;2022-09-30T02:18:49;99446.69;;;6.61;100.00
20145;BME280;10233;50.814;6.590;2022-09-30T02:19:57;99451.41;;;6.65;100.00
20145;BME280;10233;50.814;6.590;2022-09-30T02:21:01;99446.91;;;6.66;100.00
20145;BME280;10233;50.814;6.590;2022-09-30T02:22:06;99446.53;;;6.69;100.00
20145;BME280;10233;50.814;6.590;2022-09-30T02:23:11;99453.81;;;6.60;100.00
20145;BME280;10233;50.814;6.590;2022-09-30T02:24:17;99439.56;;;6.55;100.00
20145;BME280;10233;50.814;6.590;2022-09-30T02:25:26;99445.88;;;6.54;100.00
20145;BME280;10233;50.814;6.590;2022-09-30T02:26:31;99456.44;;;6.54;100.00
20145;BME280;10233;50.814;6.590;2022-09-30T02:27:40;99445.47;;;6.57;100.00
20145;BME280;10233;50.814;6.590;2022-09-30T02:28:55;99451.78;;;6.62;100.00
20145;BME280;10233;50.814;6.590;2022-09-30T02:29:58;99451.78;;;6.62;100.00
20145;BME280;10233;50.814;6.590;2022-09-30T02:31:01;99455.63;;;6.60;100.00
20145;BME280;10233;50.814;6.590;2022-09-30T02:32:14;99462.13;;;6.57;100.00
20145;BME280;10233;50.814;6.590;2022-09-30T02:33:22;99458.69;;;6.57;100.00
20145;BME280;10233;50.814;6.590;2022-09-30T02:34:29;99458.25;;;6.53;100.00
20145;BME280;10233;50.814;6.590;2022-09-30T02:35:38;99452.19;;;6.59;100.00
20145;BME280;10233;50.814;6.590;2022-09-30T02:36:45;99453.81;;;6.60;100.00
20145;BME280;10233;50.814;6.590;2022-09-30T02:37:54;99461.50;;;6.55;100.00
20145;BME280;10233;50.814;6.590;2022-09-30T02:39:08;99456.03;;;6.57;100.00
20145;BME280;10233;50.814;6.590;2022-09-30T02:40:14;99463.94;;;6.50;100.00
20145;BME280;10233;50.814;6.590;2022-09-30T02:41:23;99462.91;;;6.51;100.00
20145;BME280;10233;50.814;6.590;2022-09-30T02:42:26;99468.19;;;6.51;100.00
20145;BME280;10233;50.814;6.590;2022-09-30T02:43:29;99466.53;;;6.44;100.00
20145;BME280;10233;50.814;6.590;2022-09-30T02:44:31;99465.69;;;6.43;100.00
20145;BME280;10233;50.814;6.590;2022-09-30T02:45:48;99466.56;;;6.50;100.00
20145;BME280;10233;50.814;6.590;2022-09-30T02:47:11;99462.69;;;6.46;100.00
20145;BME280;10233;50.814;6.590;2022-09-30T02:48:22;99464.66;;;6.38;100.00
20145;BME280;10233;50.814;6.590;2022-09-30T02:49:29;99463.44;;;6.34;100.00
20145;BME280;10233;50.814;6.590;2022-09-30T02:50:53;99461.34;;;6.29;100.00
20145;BME280;10233;50.814;6.590;2022-09-30T02:52:14;99466.66;;;6.36;100.00
20145;BME280;10233;50.814;6.590;2022-09-30T02:54:00;99462.53;;;6.20;100.00
20145;BME280;10233;50.814;6.590;2022-09-30T02:55:45;99461.72;;;6.20;100.00
20145;BME280;10233;50.814;6.590;2022-09-30T02:56:55;99460.03;;;6.12;100.00
20145;BME280;10233;50.814;6.590;2022-09-30T02:58:12;99468.56;;;6.14;100.00
20145;BME280;10233;50.814;6.590;2022-09-30T02:59:16;99469.09;;;6.03;100.00
20145;BME280;10233;50.814;6.590;2022-09-30T03:00:17;99468.50;;;6.01;100.00
20145;BME280;10233;50.814;6.590;2022-09-30T03:01:18;99468.09;;;6.04;100.00
20145;BME280;10233;50.814;6.590;2022-09-30T03:02:20;99468.09;;;6.04;100.00
20145;BME280;10233;50.814;6.590;2022-09-30T03:03:25;99463.81;;;6.03;100.00
20145;BME280;10233;50.814;6.590;2022-09-30T03:04:30;99469.28;;;6.02;100.00
20145;BME280;10233;50.814;6.590;2022-09-30T03:05:33;99467.47;;;6.02;100.00
20145;BME280;10233;50.814;6.590;2022-09-30T03:06:35;99470.72;;;5.98;100.00
20145;BME280;10233;50.814;6.590;2022-09-30T03:07:37;99471.50;;;5.98;100.00
20145;BME280;10233;50.814;6.590;2022-09-30T03:08:37;99472.63;;;6.10;100.00
20145;BME280;10233;50.814;6.590;2022-09-30T03:09:38;99472.16;;;6.07;100.00
20145;BME280;10233;50.814;6.590;2022-09-30T03:10:38;99473.00;;;6.07;100.00
20145;BME280;10233;50.814;6.590;2022-09-30T03:11:39;99475.81;;;6.06;100.00
20145;BME280;10233;50.814;6.590;2022-09-30T03:19:38;99477.78;;;5.97;100.00
20145;BME280;10233;50.814;6.590;2022-09-30T03:22:20;99480.25;;;5.99;100.00
20145;BME280;10233;50.814;6.590;2022-09-30T03:23:42;99479.03;;;6.01;100.00
20145;BME280;10233;50.814;6.590;2022-09-30T03:26:29;99470.13;;;6.02;100.00
20145;BME280;10233;50.814;6.590;2022-09-30T03:27:56;99469.75;;;6.12;100.00
20145;BME280;10233;50.814;6.590;2022-09-30T03:30:00;99473.75;;;6.01;100.00
20145;BME280;10233;50.814;6.590;2022-09-30T03:30:35;99468.09;;;6.04;100.00
20145;BME280;10233;50.814;6.590;2022-09-30T03:36:22;99486.53;;;5.98;100.00
20145;BME280;10233;50.814;6.590;2022-09-30T03:40:09;99488.41;;;6.04;100.00
20145;BME280;10233;50.814;6.590;2022-09-30T03:41:24;99495.28;;;6.05;100.00
20145;BME280;10233;50.814;6.590;2022-09-30T03:42:52;99484.75;;;6.05;100.00
20145;BME280;10233;50.814;6.590;2022-09-30T03:44:05;99490.63;;;6.07;100.00
20145;BME280;10233;50.814;6.590;2022-09-30T03:45:15;99490.63;;;6.07;100.00
20145;BME280;10233;50.814;6.590;2022-09-30T03:46:25;99497.56;;;6.08;100.00
20145;BME280;10233;50.814;6.590;2022-09-30T03:47:29;99492.53;;;6.13;100.00
20145;BME280;10233;50.814;6.590;2022-09-30T03:48:32;99492.94;;;6.16;100.00
20145;BME280;10233;50.814;6.590;2022-09-30T03:49:55;99500.47;;;6.19;100.00
20145;BME280;10233;50.814;6.590;2022-09-30T03:50:59;99494.63;;;6.24;100.00
20145;BME280;10233;50.814;6.590;2022-09-30T03:52:04;99498.66;;;6.20;100.00
20145;BME280;10233;50.814;6.590;2022-09-30T03:53:08;99505.75;;;6.19;100.00
20145;BME280;10233;50.814;6.590;2022-09-30T03:54:12;99494.56;;;6.17;100.00
20145;BME280;10233;50.814;6.590;2022-09-30T03:55:13;99499.84;;;6.17;100.00
20145;BME280;10233;50.814;6.590;2022-09-30T03:56:14;99501.91;;;6.22;100.00
20145;BME280;10233;50.814;6.590;2022-09-30T03:57:15;99497.88;;;6.26;100.00
20145;BME280;10233;50.814;6.590;2022-09-30T03:58:17;99504.59;;;6.28;100.00
20145;BME280;10233;50.814;6.590;2022-09-30T03:59:24;99507.22;;;6.28;100.00
20145;BME280;10233;50.814;6.590;2022-09-30T04:00:24;99498.28;;;6.29;100.00
20145;BME280;10233;50.814;6.590;2022-09-30T04:01:25;99511.94;;;6.33;100.00
20145;BME280;10233;50.814;6.590;2022-09-30T04:02:26;99514.63;;;6.39;100.00
20145;BME280;10233;50.814;6.590;2022-09-30T04:03:26;99513.44;;;6.42;100.00
20145;BME280;10233;50.814;6.590;2022-09-30T04:04:27;99515.09;;;6.49;100.00
20145;BME280;10233;50.814;6.590;2022-09-30T04:05:28;99510.06;;;6.54;100.00
20145;BME280;10233;50.814;6.590;2022-09-30T04:06:28;99513.06;;;6.51;100.00
20145;BME280;10233;50.814;6.590;2022-09-30T04:07:29;99509.41;;;6.52;100.00
20145;BME280;10233;50.814;6.590;2022-09-30T04:08:29;99515.72;;;6.51;100.00
20145;BME280;10233;50.814;6.590;2022-09-30T04:09:29;99518.34;;;6.51;100.00
20145;BME280;10233;50.814;6.590;2022-09-30T04:10:30;99512.06;;;6.52;100.00
20145;BME280;10233;50.814;6.590;2022-09-30T04:11:30;99519.16;;;6.52;100.00
20145;BME280;10233;50.814;6.590;2022-09-30T04:12:30;99523.44;;;6.53;100.00
20145;BME280;10233;50.814;6.590;2022-09-30T04:13:31;99524.81;;;6.49;100.00
20145;BME280;10233;50.814;6.590;2022-09-30T04:14:32;99520.56;;;6.48;100.00
20145;BME280;10233;50.814;6.590;2022-09-30T04:15:33;99526.25;;;6.51;100.00
20145;BME280;10233;50.814;6.590;2022-09-30T04:16:34;99520.75;;;6.46;100.00
20145;BME280;10233;50.814;6.590;2022-09-30T04:17:34;99526.41;;;6.43;100.00
20145;BME280;10233;50.814;6.590;2022-09-30T04:18:35;99527.22;;;6.44;100.00
20145;BME280;10233;50.814;6.590;2022-09-30T04:19:37;99524.16;;;6.40;100.00
20145;BME280;10233;50.814;6.590;2022-09-30T04:20:39;99524.97;;;6.41;100.00
20145;BME280;10233;50.814;6.590;2022-09-30T04:21:39;99520.88;;;6.38;100.00
20145;BME280;10233;50.814;6.590;2022-09-30T04:22:40;99519.22;;;6.31;100.00
20145;BME280;10233;50.814;6.590;2022-09-30T04:23:41;99522.31;;;6.34;100.00
20145;BME280;10233;50.814;6.590;2022-09-30T04:24:42;99527.31;;;6.29;100.00
20145;BME280;10233;50.814;6.590;2022-09-30T04:25:46;99527.91;;;6.25;100.00
20145;BME280;10233;50.814;6.590;2022-09-30T04:26:50;99530.31;;;6.20;100.00
20145;BME280;10233;50.814;6.590;2022-09-30T04:27:51;99527.84;;;6.18;100.00
20145;BME280;10233;50.814;6.590;2022-09-30T04:28:51;99536.78;;;6.17;100.00
20145;BME280;10233;50.814;6.590;2022-09-30T04:29:52;99534.34;;;6.16;100.00
20145;BME280;10233;50.814;6.590;2022-09-30T04:30:52;99533.53;;;6.15;100.00
20145;BME280;10233;50.814;6.590;2022-09-30T04:31:53;99536.78;;;6.17;100.00
20145;BME280;10233;50.814;6.590;2022-09-30T04:32:53;99531.44;;;6.11;100.00
20145;BME280;10233;50.814;6.590;2022-09-30T04:33:55;99539.78;;;6.14;100.00
20145;BME280;10233;50.814;6.590;2022-09-30T04:34:56;99537.63;;;6.18;100.00
20145;BME280;10233;50.814;6.590;2022-09-30T04:35:58;99542.88;;;6.18;100.00
20145;BME280;10233;50.814;6.590;2022-09-30T04:36:59;99533.53;;;6.15;100.00
20145;BME280;10233;50.814;6.590;2022-09-30T04:37:59;99545.47;;;6.11;100.00
20145;BME280;10233;50.814;6.590;2022-09-30T04:39:00;99549.13;;;6.10;100.00
20145;BME280;10233;50.814;6.590;2022-09-30T04:40:00;99549.50;;;6.07;100.00
20145;BME280;10233;50.814;6.590;2022-09-30T04:41:03;99537.44;;;5.98;100.00
20145;BME280;10233;50.814;6.590;2022-09-30T04:42:04;99544.66;;;5.90;100.00
20145;BME280;10233;50.814;6.590;2022-09-30T04:43:05;99543.03;;;5.89;100.00
20145;BME280;10233;50.814;6.590;2022-09-30T04:44:05;99544.50;;;5.91;100.00
20145;BME280;10233;50.814;6.590;2022-09-30T04:45:06;99547.75;;;5.93;100.00
20145;BME280;10233;50.814;6.590;2022-09-30T04:46:07;99542.97;;;5.82;100.00
20145;BME280;10233;50.814;6.590;2022-09-30T04:47:08;99547.44;;;5.82;100.00
20145;BME280;10233;50.814;6.590;2022-09-30T04:48:08;99540.19;;;5.90;100.00
20145;BME280;10233;50.814;6.590;2022-09-30T04:49:09;99542.34;;;5.80;100.00
20145;BME280;10233;50.814;6.590;2022-09-30T04:50:09;99541.19;;;5.68;100.00
20145;BME280;10233;50.814;6.590;2022-09-30T04:51:14;99543.22;;;5.66;100.00
20145;BME280;10233;50.814;6.590;2022-09-30T04:52:15;99547.31;;;5.75;100.00
20145;BME280;10233;50.814;6.590;2022-09-30T04:53:16;99544.25;;;5.72;100.00
20145;BME280;10233;50.814;6.590;2022-09-30T04:54:17;99540.69;;;5.79;100.00
20145;BME280;10233;50.814;6.590;2022-09-30T04:55:18;99549.94;;;5.69;100.00
20145;BME280;10233;50.814;6.590;2022-09-30T04:56:19;99546.56;;;5.60;100.00
20145;BME280;10233;50.814;6.590;2022-09-30T04:57:19;99546.22;;;5.63;100.00
20145;BME280;10233;50.814;6.590;2022-09-30T04:58:19;99552.34;;;5.49;100.00
20145;BME280;10233;50.814;6.590;2022-09-30T04:59:21;99551.97;;;5.52;100.00
20145;BME280;10233;50.814;6.590;2022-09-30T05:00:22;99557.47;;;5.36;100.00
20145;BME280;10233;50.814;6.590;2022-09-30T05:01:24;99553.69;;;5.24;100.00
20145;BME280;10233;50.814;6.590;2022-09-30T05:02:24;99562.22;;;5.26;100.00
20145;BME280;10233;50.814;6.590;2022-09-30T05:03:25;99555.72;;;5.22;100.00
20145;BME280;10233;50.814;6.590;2022-09-30T05:04:25;99556.59;;;5.29;100.00
20145;BME280;10233;50.814;6.590;2022-09-30T05:05:26;99557.16;;;5.25;100.00
20145;BME280;10233;50.814;6.590;2022-09-30T05:06:27;99561.50;;;5.18;100.00
20145;BME280;10233;50.814;6.590;2022-09-30T05:07:29;99567.69;;;5.10;100.00
20145;BME280;10233;50.814;6.590;2022-09-30T05:08:30;99571.78;;;5.13;100.00
20145;BME280;10233;50.814;6.590;2022-09-30T05:09:34;99565.16;;;5.02;100.00
20145;BME280;10233;50.814;6.590;2022-09-30T05:10:35;99563.53;;;5.01;100.00
20145;BME280;10233;50.814;6.590;2022-09-30T05:11:35;99572.53;;;4.92;100.00
20145;BME280;10233;50.814;6.590;2022-09-30T05:12:41;99564.28;;;4.95;100.00
20145;BME280;10233;50.814;6.590;2022-09-30T05:13:42;99571.53;;;4.93;100.00
20145;BME280;10233;50.814;6.590;2022-09-30T05:14:42;99569.25;;;4.90;100.00
20145;BME280;10233;50.814;6.590;2022-09-30T05:15:43;99577.16;;;4.90;100.00
20145;BME280;10233;50.814;6.590;2022-09-30T05:16:47;99575.53;;;4.89;100.00
20145;BME280;10233;50.814;6.590;2022-09-30T05:17:48;99573.25;;;5.01;100.00
20145;BME280;10233;50.814;6.590;2022-09-30T05:18:51;99568.78;;;5.01;100.00
20145;BME280;10233;50.814;6.590;2022-09-30T05:19:52;99567.16;;;5.00;100.00
20145;BME280;10233;50.814;6.590;2022-09-30T05:20:53;99567.06;;;5.08;100.00
20145;BME280;10233;50.814;6.590;2022-09-30T05:21:54;99563.88;;;5.13;100.00
20145;BME280;10233;50.814;6.590;2022-09-30T05:22:55;99568.97;;;5.14;100.00
20145;BME280;10233;50.814;6.590;2022-09-30T05:23:55;99564.44;;;5.08;100.00
20145;BME280;10233;50.814;6.590;2022-09-30T05:24:58;99560.53;;;5.04;100.00
20145;BME280;10233;50.814;6.590;2022-09-30T05:26:00;99565.41;;;5.07;100.00
20145;BME280;10233;50.814;6.590;2022-09-30T05:27:01;99568.13;;;5.14;100.00
20145;BME280;10233;50.814;6.590;2022-09-30T05:28:02;99563.88;;;5.27;100.00
20145;BME280;10233;50.814;6.590;2022-09-30T05:29:06;99560.97;;;5.22;100.00
20145;BME280;10233;50.814;6.590;2022-09-30T05:30:07;99561.16;;;5.21;100.00
20145;BME280;10233;50.814;6.590;2022-09-30T05:31:08;99570.94;;;5.27;100.00
20145;BME280;10233;50.814;6.590;2022-09-30T05:32:11;99568.75;;;5.30;100.00
20145;BME280;10233;50.814;6.590;2022-09-30T05:33:13;99563.91;;;5.34;100.00
20145;BME280;10233;50.814;6.590;2022-09-30T05:34:13;99565.19;;;5.38;100.00
20145;BME280;10233;50.814;6.590;2022-09-30T05:35:15;99573.91;;;5.38;100.00
20145;BME280;10233;50.814;6.590;2022-09-30T05:36:16;99567.28;;;5.42;100.00
20145;BME280;10233;50.814;6.590;2022-09-30T05:37:17;99579.53;;;5.50;100.00
20145;BME280;10233;50.814;6.590;2022-09-30T05:38:17;99585.69;;;5.57;100.00
20145;BME280;10233;50.814;6.590;2022-09-30T05:39:18;99584.50;;;5.59;100.00
20145;BME280;10233;50.814;6.590;2022-09-30T05:40:18;99591.47;;;5.67;100.00
20145;BME280;10233;50.814;6.590;2022-09-30T05:41:19;99591.09;;;5.70;100.00
20145;BME280;10233;50.814;6.590;2022-09-30T05:42:20;99594.00;;;5.75;100.00
20145;BME280;10233;50.814;6.590;2022-09-30T05:43:20;99591.78;;;5.78;100.00
20145;BME280;10233;50.814;6.590;2022-09-30T05:44:21;99594.34;;;5.86;100.00
20145;BME280;10233;50.814;6.590;2022-09-30T05:45:23;99597.41;;;5.90;100.00
20145;BME280;10233;50.814;6.590;2022-09-30T05:46:23;99596.22;;;5.92;100.00
20145;BME280;10233;50.814;6.590;2022-09-30T05:47:24;99602.75;;;5.96;100.00
20145;BME280;10233;50.814;6.590;2022-09-30T05:48:24;99608.91;;;6.03;100.00
20145;BME280;10233;50.814;6.590;2022-09-30T05:49:25;99609.53;;;6.05;100.00
20145;BME280;10233;50.814;6.590;2022-09-30T05:50:26;99611.41;;;6.11;100.00
20145;BME280;10233;50.814;6.590;2022-09-30T05:51:27;99610.22;;;6.14;100.00
20145;BME280;10233;50.814;6.590;2022-09-30T05:52:27;99615.16;;;6.23;100.00
20145;BME280;10233;50.814;6.590;2022-09-30T05:53:29;99611.56;;;6.31;100.00
20145;BME280;10233;50.814;6.590;2022-09-30T05:54:31;99610.88;;;6.43;100.00
20145;BME280;10233;50.814;6.590;2022-09-30T05:55:31;99616.75;;;6.66;100.00
20145;BME280;10233;50.814;6.590;2022-09-30T05:56:32;99616.56;;;6.68;100.00
20145;BME280;10233;50.814;6.590;2022-09-30T05:57:37;99613.97;;;6.74;100.00
20145;BME280;10233;50.814;6.590;2022-09-30T05:58:38;99617.06;;;6.84;100.00
20145;BME280;10233;50.814;6.590;2022-09-30T05:59:42;99612.81;;;6.90;100.00
20145;BME280;10233;50.814;6.590;2022-09-30T06:00:45;99611.66;;;6.99;100.00
20145;BME280;10233;50.814;6.590;2022-09-30T06:01:46;99612.06;;;7.02;100.00
20145;BME280;10233;50.814;6.590;2022-09-30T06:02:50;99613.38;;;7.13;100.00
20145;BME280;10233;50.814;6.590;2022-09-30T06:03:51;99615.44;;;7.17;100.00
20145;BME280;10233;50.814;6.590;2022-09-30T06:04:51;99616.28;;;7.24;100.00
20145;BME280;10233;50.814;6.590;2022-09-30T06:05:55;99610.66;;;7.40;100.00
20145;BME280;10233;50.814;6.590;2022-09-30T06:06:56;99609.91;;;7.59;100.00
20145;BME280;10233;50.814;6.590;2022-09-30T06:07:56;99618.06;;;7.64;100.00
20145;BME280;10233;50.814;6.590;2022-09-30T06:08:57;99618.53;;;7.87;100.00
20145;BME280;10233;50.814;6.590;2022-09-30T06:09:57;99615.50;;;7.97;100.00
20145;BME280;10233;50.814;6.590;2022-09-30T06:10:57;99622.88;;;8.08;100.00
20145;BME280;10233;50.814;6.590;2022-09-30T06:11:58;99615.94;;;8.20;100.00
20145;BME280;10233;50.814;6.590;2022-09-30T06:13:02;99623.31;;;8.37;100.00
20145;BME280;10233;50.814;6.590;2022-09-30T06:14:02;99616.59;;;8.61;100.00
20145;BME280;10233;50.814;6.590;2022-09-30T06:15:03;99610.06;;;8.76;100.00
20145;BME280;10233;50.814;6.590;2022-09-30T06:16:04;99623.09;;;8.91;100.00
20145;BME280;10233;50.814;6.590;2022-09-30T06:17:05;99620.16;;;9.25;100.00
20145;BME280;10233;50.814;6.590;2022-09-30T06:18:06;99615.00;;;9.36;100.00
20145;BME280;10233;50.814;6.590;2022-09-30T06:19:07;99617.03;;;9.41;100.00
20145;BME280;10233;50.814;6.590;2022-09-30T06:20:10;99617.91;;;9.72;100.00
20145;BME280;10233;50.814;6.590;2022-09-30T06:21:13;99621.69;;;9.89;100.00
20145;BME280;10233;50.814;6.590;2022-09-30T06:22:15;99623.25;;;10.10;100.00
20145;BME280;10233;50.814;6.590;2022-09-30T06:23:16;99627.28;;;10.43;100.00
20145;BME280;10233;50.814;6.590;2022-09-30T06:24:17;99622.28;;;10.78;100.00
20145;BME280;10233;50.814;6.590;2022-09-30T06:25:17;99622.63;;;11.06;100.00
20145;BME280;10233;50.814;6.590;2022-09-30T06:26:18;99619.38;;;11.58;100.00